createdAt,value
2022-10-22T13:34:37.827Z,5.05
2022-10-22T13:39:59.073Z,6.97
2022-10-22T13:45:20.969Z,6.53
2022-10-22T13:50:42.719Z,6.53
2022-10-22T13:56:04.020Z,5.07
2022-10-22T14:01:27.746Z,7.18
2022-10-22T14:06:49.250Z,8.73
2022-10-22T14:12:16.959Z,6.78
2022-10-22T14:17:39.288Z,7.03
2022-10-22T14:23:13.413Z,7.35
2022-10-22T14:28:41.277Z,8.55
2022-10-22T14:34:11.094Z,6.28
2022-10-22T14:39:32.459Z,8.55
2022-10-22T14:44:54.004Z,7.45
2022-10-22T14:50:15.820Z,6.70
2022-10-22T14:55:37.264Z,8.00
2022-10-22T15:00:58.655Z,8.48
2022-10-22T15:06:20.130Z,8.38
2022-10-22T15:11:42.837Z,8.65
2022-10-22T15:17:04.299Z,8.93
2022-10-22T15:22:25.525Z,7.55
2022-10-22T15:27:50.344Z,7.82
2022-10-22T15:33:13.142Z,7.80
2022-10-22T15:38:34.335Z,7.93
2022-10-22T15:43:55.496Z,8.02
2022-10-22T15:49:17.619Z,8.07
2022-10-22T15:54:41.141Z,8.80
2022-10-22T16:00:04.416Z,7.75
2022-10-22T16:05:33.689Z,8.35
2022-10-22T16:10:55.168Z,7.47
2022-10-22T16:16:16.675Z,7.13
2022-10-22T16:21:38.350Z,7.43
2022-10-22T16:27:00.370Z,9.57
2022-10-22T16:32:21.730Z,9.27
2022-10-22T16:37:43.695Z,7.35
2022-10-22T16:43:06.065Z,8.07
2022-10-22T16:48:27.316Z,6.57
2022-10-22T16:53:49.206Z,6.65
2022-10-22T16:59:10.494Z,6.45
2022-10-22T17:04:32.154Z,7.03
2022-10-22T17:09:53.449Z,6.90
2022-10-22T17:15:15.149Z,5.32
2022-10-22T17:20:36.445Z,5.03
2022-10-22T17:26:09.018Z,4.93
2022-10-22T17:31:33.270Z,6.25
2022-10-22T17:36:55.767Z,5.20
2022-10-22T17:42:17.331Z,4.65
2022-10-22T17:47:38.959Z,5.82
2022-10-22T17:53:00.547Z,3.90
2022-10-22T17:58:22.059Z,4.00
2022-10-22T18:03:43.703Z,3.22
2022-10-22T18:09:06.911Z,3.05
2022-10-22T18:14:28.246Z,4.07
2022-10-22T18:19:49.718Z,2.92
2022-10-22T18:25:12.006Z,3.63
2022-10-22T18:30:34.948Z,4.57
2022-10-22T18:35:57.053Z,4.53
2022-10-22T18:41:19.383Z,3.08
2022-10-22T18:46:40.704Z,3.15
2022-10-22T18:52:01.816Z,3.70
2022-10-22T18:57:23.259Z,2.95
2022-10-22T19:02:44.863Z,5.65
2022-10-22T19:08:06.383Z,4.32
2022-10-22T19:13:28.626Z,3.22
2022-10-22T19:18:59.562Z,4.32
2022-10-22T19:24:21.049Z,5.70
2022-10-22T19:29:45.354Z,4.43
2022-10-22T19:35:06.903Z,4.43
2022-10-22T19:40:28.660Z,4.47
2022-10-22T19:45:50.183Z,5.18
2022-10-22T19:51:17.957Z,4.15
2022-10-22T19:56:39.478Z,4.88
2022-10-22T20:02:01.185Z,3.42
2022-10-22T20:07:22.722Z,2.50
2022-10-22T20:12:43.931Z,2.63
2022-10-22T20:18:05.569Z,2.65
2022-10-22T20:23:27.027Z,2.30
2022-10-22T20:28:48.504Z,3.17
2022-10-22T20:34:10.144Z,3.50
2022-10-22T20:39:31.826Z,3.17
2022-10-22T20:44:53.296Z,3.58
2022-10-22T20:50:14.804Z,3.38
2022-10-22T20:55:36.555Z,3.30
2022-10-22T21:01:01.101Z,3.15
2022-10-22T21:06:23.457Z,2.70
2022-10-22T21:11:45.701Z,3.35
2022-10-22T21:17:08.344Z,3.97
2022-10-22T21:22:29.951Z,3.53
2022-10-22T21:27:51.467Z,3.17
2022-10-22T21:33:13.151Z,3.70
2022-10-22T21:38:35.328Z,2.90
2022-10-22T21:43:56.854Z,3.13
2022-10-22T21:49:18.224Z,3.40
2022-10-22T21:54:39.990Z,2.58
2022-10-22T22:00:01.335Z,2.38
2022-10-22T22:05:23.042Z,2.22
2022-10-22T22:10:44.281Z,4.30
2022-10-22T22:16:08.996Z,1.80
2022-10-22T22:21:30.936Z,3.30
2022-10-22T22:26:52.505Z,2.50
2022-10-22T22:32:14.588Z,2.83
2022-10-22T22:37:35.774Z,3.53
2022-10-22T22:42:57.327Z,2.15
2022-10-22T22:48:18.743Z,2.95
2022-10-22T22:53:40.161Z,3.22
2022-10-22T22:59:01.706Z,3.22
2022-10-22T23:04:23.938Z,3.22
2022-10-22T23:09:45.525Z,3.80
2022-10-22T23:15:07.465Z,3.92
2022-10-22T23:20:29.184Z,2.60
2022-10-22T23:25:50.626Z,3.85
2022-10-22T23:31:17.904Z,2.83
2022-10-22T23:36:39.582Z,5.47
2022-10-22T23:42:01.301Z,3.08
2022-10-22T23:47:22.948Z,4.07
2022-10-22T23:52:44.768Z,3.53
2022-10-22T23:58:06.761Z,3.30
